Time;durP1;ratioP1;P1;durP2;ratioP2;P2;SDS_P1;SDS_P2;PMS_P1;PMS_P2;Temp;Humidity;BMP_temperature;BMP_pressure;BME280_temperature;BME280_humidity;BME280_pressure;Samples;Min_cycle;Max_cycle;Signal;HPM_P1;HPM_P2
2021/11/19 04:05:57;;;;;;;2.92;1.60;;;19.60;58.70;;;;;;4801377;30;20233;-78
2021/11/19 04:08:23;;;;;;;2.03;1.52;;;19.60;58.70;;;;;;4803171;30;20175;-79
2021/11/19 04:10:49;;;;;;;1.45;1.27;;;19.60;58.60;;;;;;4786717;30;20204;-79
2021/11/19 04:13:16;;;;;;;2.28;1.48;;;19.60;58.30;;;;;;4802700;30;20160;-81
2021/11/19 04:15:45;;;;;;;2.42;1.38;;;19.60;58.00;;;;;;4771188;30;20180;-81
2021/11/19 04:18:13;;;;;;;2.88;1.70;;;19.60;57.90;;;;;;4771317;30;20200;-81
2021/11/19 04:20:39;;;;;;;2.53;1.30;;;19.60;58.10;;;;;;4801165;30;20194;-80
2021/11/19 04:23:05;;;;;;;2.45;1.45;;;19.60;57.90;;;;;;4785970;30;20159;-80
2021/11/19 04:25:31;;;;;;;3.50;1.60;;;19.60;58.10;;;;;;4785310;30;20163;-82
2021/11/19 04:27:59;;;;;;;3.65;1.52;;;19.60;57.80;;;;;;4770740;30;20677;-81
2021/11/19 04:30:31;;;;;;;2.72;1.40;;;19.60;58.10;;;;;;4770750;30;20167;-83
2021/11/19 04:33:01;;;;;;;1.70;1.20;;;19.50;58.20;;;;;;4785671;30;20186;-80
2021/11/19 04:35:26;;;;;;;3.45;1.48;;;19.60;58.20;;;;;;4801058;29;20164;-80
2021/11/19 04:37:54;;;;;;;3.70;1.50;;;19.50;58.30;;;;;;4770210;30;20228;-80
2021/11/19 04:40:21;;;;;;;2.83;1.30;;;19.50;58.20;;;;;;4785648;30;20236;-81
2021/11/19 04:42:48;;;;;;;2.10;1.30;;;19.50;58.30;;;;;;4785861;30;20156;-80
2021/11/19 04:45:16;;;;;;;1.55;1.38;;;19.50;58.30;;;;;;4771679;30;20171;-82
2021/11/19 04:47:41;;;;;;;2.60;1.45;;;19.50;57.90;;;;;;4801939;30;20209;-81
2021/11/19 04:50:08;;;;;;;3.45;1.17;;;19.50;57.80;;;;;;4785092;30;20180;-81
2021/11/19 04:52:34;;;;;;;2.85;1.60;;;19.50;58.00;;;;;;4770738;30;20262;-80
2021/11/19 04:55:01;;;;;;;2.72;1.30;;;19.50;58.30;;;;;;4785595;30;20660;-80
2021/11/19 04:57:29;;;;;;;2.80;1.20;;;19.50;58.40;;;;;;4770559;30;20191;-79
2021/11/19 04:59:56;;;;;;;2.22;1.50;;;19.50;58.30;;;;;;4801568;30;20168;-81
2021/11/19 05:02:23;;;;;;;1.83;1.30;;;19.50;58.10;;;;;;4784863;30;20164;-81
2021/11/19 05:04:49;;;;;;;2.97;1.40;;;19.50;58.00;;;;;;4801037;30;20231;-80
2021/11/19 05:07:16;;;;;;;2.40;1.50;;;19.50;58.10;;;;;;4785183;30;20320;-81
2021/11/19 05:09:42;;;;;;;2.35;1.38;;;19.50;58.10;;;;;;4784533;30;20168;-82
2021/11/19 05:12:13;;;;;;;2.25;1.45;;;19.50;58.10;;;;;;4801611;30;20201;-80
2021/11/19 05:14:40;;;;;;;2.90;1.25;;;19.50;58.10;;;;;;4784632;30;20176;-81
2021/11/19 05:17:07;;;;;;;2.17;1.40;;;19.50;57.80;;;;;;4769896;30;20663;-81
2021/11/19 05:19:33;;;;;;;2.00;1.30;;;19.50;58.10;;;;;;4770539;30;20203;-80
2021/11/19 05:21:58;;;;;;;2.92;1.58;;;19.50;58.00;;;;;;4784976;30;20164;-80
2021/11/19 05:24:24;;;;;;;2.22;1.40;;;19.60;58.20;;;;;;4800702;30;20176;-80
2021/11/19 05:26:50;;;;;;;3.13;1.60;;;19.50;58.20;;;;;;4800190;30;20679;-80
2021/11/19 05:29:22;;;;;;;3.00;1.48;;;19.60;58.30;;;;;;4784303;30;20520;-80
2021/11/19 05:31:48;;;;;;;2.08;1.40;;;19.60;58.30;;;;;;4800985;30;20255;-81
2021/11/19 05:34:16;;;;;;;2.25;1.27;;;19.60;58.20;;;;;;4784808;30;20214;-82
2021/11/19 05:36:43;;;;;;;2.35;1.50;;;19.60;58.00;;;;;;4801009;30;20222;-80
2021/11/19 05:39:09;;;;;;;2.03;1.33;;;19.60;58.00;;;;;;4783934;30;20172;-80
2021/11/19 05:41:35;;;;;;;1.80;1.20;;;19.60;57.90;;;;;;4797608;30;20175;-81
2021/11/19 05:44:02;;;;;;;2.05;1.20;;;19.70;58.10;;;;;;4780107;30;20167;-83
2021/11/19 05:46:28;;;;;;;3.38;1.67;;;19.70;58.00;;;;;;4792844;29;20258;-80
2021/11/19 05:48:56;;;;;;;3.08;1.20;;;19.60;57.70;;;;;;4805827;29;20168;-82
2021/11/19 05:51:24;;;;;;;3.35;1.38;;;19.70;57.50;;;;;;4794580;30;20184;-83
2021/11/19 05:53:50;;;;;;;2.55;1.40;;;19.70;57.50;;;;;;4764518;30;20168;-81
2021/11/19 05:56:16;;;;;;;4.38;1.50;;;19.70;57.40;;;;;;4795468;30;20205;-84
2021/11/19 05:58:42;;;;;;;2.33;1.27;;;19.70;57.90;;;;;;4780379;30;20171;-82
2021/11/19 06:01:10;;;;;;;1.75;1.10;;;19.70;57.90;;;;;;4795814;30;20164;-82
2021/11/19 06:03:39;;;;;;;2.20;1.50;;;19.70;57.80;;;;;;4766367;30;20246;-81
2021/11/19 06:06:09;;;;;;;2.65;1.30;;;19.70;57.80;;;;;;4796396;30;20219;-81
2021/11/19 06:08:37;;;;;;;1.40;1.10;;;19.70;57.50;;;;;;4781154;30;20194;-80
2021/11/19 06:11:11;;;;;;;2.30;1.52;;;19.70;57.60;;;;;;4769107;30;20159;-80
2021/11/19 06:13:47;;;;;;;2.22;1.38;;;19.70;57.60;;;;;;4784798;30;20178;-80
2021/11/19 06:16:37;;;;;;;2.20;1.40;;;19.80;57.60;;;;;;4769792;30;20203;-79
2021/11/19 06:19:10;;;;;;;1.67;1.00;;;19.80;57.70;;;;;;4770320;30;20237;-80
2021/11/19 06:21:40;;;;;;;2.15;1.38;;;19.80;57.60;;;;;;4768264;30;20167;-79
2021/11/19 06:24:08;;;;;;;1.70;1.27;;;19.80;57.60;;;;;;4784893;30;20183;-79
2021/11/19 06:26:34;;;;;;;1.85;1.40;;;19.70;57.50;;;;;;4784480;30;20207;-78
2021/11/19 06:29:04;;;;;;;4.80;1.30;;;19.70;57.60;;;;;;4785137;30;20586;-79
2021/11/19 06:31:35;;;;;;;3.13;1.50;;;19.80;57.60;;;;;;4784841;30;20209;-79
2021/11/19 06:34:02;;;;;;;2.05;1.30;;;19.80;57.50;;;;;;4785051;30;20187;-79
2021/11/19 06:36:29;;;;;;;1.92;1.50;;;19.70;57.50;;;;;;4784379;30;20211;-80
2021/11/19 06:38:55;;;;;;;1.95;1.23;;;19.80;57.50;;;;;;4770427;30;20168;-79
2021/11/19 06:41:22;;;;;;;2.40;1.25;;;19.80;57.40;;;;;;4768366;30;20233;-81
2021/11/19 06:43:53;;;;;;;3.78;1.40;;;19.80;57.40;;;;;;4783851;30;20197;-80
2021/11/19 06:46:20;;;;;;;1.40;1.10;;;19.80;57.10;;;;;;4784750;30;20172;-79
2021/11/19 06:48:48;;;;;;;3.10;1.38;;;19.80;57.10;;;;;;4785054;30;20224;-79
2021/11/19 06:51:17;;;;;;;3.65;1.83;;;19.70;57.00;;;;;;4769538;30;20187;-79
2021/11/19 06:53:43;;;;;;;3.60;1.48;;;19.80;57.20;;;;;;4791099;30;20176;-79
2021/11/19 06:56:09;;;;;;;1.55;1.30;;;19.80;57.10;;;;;;4782801;30;20210;-79
2021/11/19 06:58:36;;;;;;;2.25;1.20;;;19.80;57.10;;;;;;4813437;29;20168;-79
2021/11/19 07:01:01;;;;;;;4.50;1.90;;;19.80;57.20;;;;;;4751875;30;20191;-80
2021/11/19 07:03:28;;;;;;;2.15;1.17;;;19.80;57.10;;;;;;4781634;30;20181;-79
2021/11/19 07:05:57;;;;;;;2.42;1.58;;;19.80;56.90;;;;;;4766241;30;20228;-80
2021/11/19 07:08:23;;;;;;;2.47;1.30;;;19.80;57.20;;;;;;4752009;30;20177;-80
2021/11/19 07:10:53;;;;;;;2.13;1.40;;;19.80;56.90;;;;;;4752164;30;20199;-80
2021/11/19 07:13:19;;;;;;;1.90;1.20;;;19.80;57.10;;;;;;4766137;30;20180;-79
2021/11/19 07:15:44;;;;;;;1.10;0.95;;;19.90;57.00;;;;;;4793039;30;20171;-79
2021/11/19 07:18:14;;;;;;;2.22;1.30;;;19.80;56.90;;;;;;4783795;30;20183;-79
2021/11/19 07:20:40;;;;;;;1.63;1.38;;;19.80;56.60;;;;;;4779961;30;20225;-79
2021/11/19 07:23:08;;;;;;;3.40;1.27;;;19.80;56.90;;;;;;4780625;30;20175;-79
2021/11/19 07:25:35;;;;;;;2.47;1.30;;;19.80;56.90;;;;;;4795618;30;20182;-79
2021/11/19 07:28:01;;;;;;;2.85;1.40;;;19.80;56.70;;;;;;4766475;30;20580;-79
2021/11/19 07:30:33;;;;;;;1.70;1.08;;;19.80;56.60;;;;;;4751953;30;20171;-82
2021/11/19 07:32:59;;;;;;;1.33;1.00;;;19.80;56.90;;;;;;4796300;30;20175;-79
2021/11/19 07:35:25;;;;;;;2.55;1.30;;;19.80;56.90;;;;;;4781589;30;20187;-80
2021/11/19 07:37:51;;;;;;;2.55;1.20;;;19.80;56.70;;;;;;4783748;30;20203;-79
2021/11/19 07:40:19;;;;;;;2.58;1.58;;;19.80;56.60;;;;;;4783024;30;20175;-77
2021/11/19 07:42:44;;;;;;;1.65;1.25;;;19.80;56.70;;;;;;4798573;30;20263;-79
2021/11/19 07:45:10;;;;;;;1.60;1.10;;;19.80;56.70;;;;;;4782529;30;20203;-77
2021/11/19 07:47:37;;;;;;;1.60;1.10;;;19.80;56.40;;;;;;4783106;30;20540;-81
2021/11/19 07:50:04;;;;;;;2.60;1.30;;;19.80;56.20;;;;;;4779658;30;20193;-80
2021/11/19 07:52:30;;;;;;;1.95;1.10;;;19.80;56.30;;;;;;4761131;30;20180;-83
2021/11/19 07:54:55;;;;;;;1.52;1.20;;;19.80;56.30;;;;;;4775001;30;20164;-80
2021/11/19 07:57:21;;;;;;;3.53;1.35;;;19.80;56.20;;;;;;4744730;30;20339;-81
2021/11/19 07:59:47;;;;;;;2.78;1.30;;;19.80;56.20;;;;;;4773799;30;20232;-79
2021/11/19 08:02:14;;;;;;;2.47;1.27;;;19.80;56.30;;;;;;4744447;30;20207;-80
2021/11/19 08:04:40;;;;;;;2.45;1.10;;;19.90;56.00;;;;;;4761718;30;20228;-79
2021/11/19 08:07:06;;;;;;;4.25;1.48;;;19.80;56.10;;;;;;4777328;30;20539;-80
2021/11/19 08:09:33;;;;;;;1.42;1.20;;;19.90;56.10;;;;;;4776177;30;20256;-81
2021/11/19 08:12:00;;;;;;;3.03;1.52;;;19.90;56.10;;;;;;4781331;30;20176;-78
2021/11/19 08:14:25;;;;;;;2.53;1.23;;;19.90;55.60;;;;;;4781612;30;20172;-81
2021/11/19 08:16:55;;;;;;;3.65;1.33;;;19.90;56.40;;;;;;4781581;30;20567;-78
2021/11/19 08:19:26;;;;;;;1.70;1.08;;;19.80;56.00;;;;;;4780882;30;20198;-81
2021/11/19 08:21:52;;;;;;;2.30;1.35;;;19.90;56.40;;;;;;4751985;30;20172;-81
2021/11/19 08:24:19;;;;;;;1.95;1.40;;;19.90;56.20;;;;;;4782704;30;20233;-79
2021/11/19 08:26:47;;;;;;;2.05;1.20;;;19.90;56.40;;;;;;4782287;30;20168;-78
2021/11/19 08:29:18;;;;;;;1.80;1.20;;;19.80;56.30;;;;;;4767496;30;20156;-81
2021/11/19 08:31:45;;;;;;;1.60;1.02;;;19.80;56.40;;;;;;4765833;30;20192;-79
2021/11/19 08:34:12;;;;;;;1.92;1.17;;;19.80;56.10;;;;;;4782513;30;20176;-78
2021/11/19 08:36:37;;;;;;;1.55;1.10;;;19.80;56.40;;;;;;4764904;30;20199;-81
2021/11/19 08:39:05;;;;;;;1.52;1.30;;;19.90;56.40;;;;;;4763741;30;20267;-81
2021/11/19 08:41:32;;;;;;;2.10;1.10;;;19.80;56.40;;;;;;4776462;30;20169;-80
2021/11/19 08:43:58;;;;;;;1.85;1.25;;;19.80;56.30;;;;;;4761922;30;20164;-81
2021/11/19 08:46:28;;;;;;;2.45;1.17;;;19.80;56.30;;;;;;4778868;30;20226;-81
2021/11/19 08:48:54;;;;;;;1.40;1.13;;;19.90;56.40;;;;;;4779496;30;20184;-79
2021/11/19 08:51:23;;;;;;;1.52;1.20;;;19.80;56.10;;;;;;4782788;30;20171;-79
2021/11/19 08:53:50;;;;;;;2.10;1.10;;;19.80;55.90;;;;;;4763304;30;20169;-81
2021/11/19 08:56:16;;;;;;;1.55;1.20;;;19.80;55.90;;;;;;4778691;30;20308;-81
2021/11/19 08:58:42;;;;;;;2.70;1.30;;;19.90;56.10;;;;;;4779879;30;20244;-78
2021/11/19 09:01:08;;;;;;;1.52;1.13;;;19.80;56.00;;;;;;4781007;30;20164;-80
2021/11/19 09:03:34;;;;;;;1.38;1.10;;;19.80;56.10;;;;;;4765096;30;20172;-79
2021/11/19 09:06:06;;;;;;;1.35;1.20;;;19.90;56.20;;;;;;4793426;30;20215;-80
2021/11/19 09:08:32;;;;;;;1.63;1.20;;;19.90;56.10;;;;;;4785151;30;20278;-79
2021/11/19 09:10:59;;;;;;;2.20;1.55;;;19.80;55.90;;;;;;4784951;30;20163;-78
2021/11/19 09:13:25;;;;;;;1.40;1.05;;;19.80;55.70;;;;;;4785315;30;20172;-78
2021/11/19 09:15:51;;;;;;;2.20;1.20;;;19.80;55.60;;;;;;4800381;30;20203;-79
2021/11/19 09:18:58;;;;;;;1.58;1.20;;;19.90;55.70;;;;;;4801155;30;20168;-80
2021/11/19 09:21:28;;;;;;;1.05;0.95;;;19.90;56.10;;;;;;4799478;29;20179;-79
2021/11/19 09:23:58;;;;;;;1.23;1.10;;;19.90;56.00;;;;;;4784929;30;20178;-79
2021/11/19 09:26:38;;;;;;;2.22;1.30;;;19.80;55.90;;;;;;4785318;30;20281;-79
2021/11/19 09:29:09;;;;;;;2.13;1.20;;;19.90;56.00;;;;;;4785744;30;20642;-79
2021/11/19 09:31:36;;;;;;;1.63;1.20;;;19.80;56.00;;;;;;4785768;30;20175;-79
2021/11/19 09:34:03;;;;;;;2.50;1.20;;;19.80;55.60;;;;;;4785737;30;20163;-79
2021/11/19 09:36:29;;;;;;;2.22;1.20;;;19.80;55.90;;;;;;4785523;30;20541;-79
2021/11/19 09:38:54;;;;;;;1.92;1.20;;;19.90;55.50;;;;;;4785822;30;20175;-78
2021/11/19 09:41:41;;;;;;;2.03;1.27;;;19.90;55.90;;;;;;4785338;30;20175;-80
2021/11/19 09:44:26;;;;;;;1.42;1.15;;;19.80;55.40;;;;;;4785242;30;20235;-80
2021/11/19 09:47:22;;;;;;;2.45;1.15;;;19.80;55.60;;;;;;4773674;30;20198;-79
2021/11/19 09:50:12;;;;;;;1.55;1.17;;;19.90;55.60;;;;;;4787784;30;20243;-81
2021/11/19 09:53:16;;;;;;;2.65;1.25;;;19.90;55.80;;;;;;4785452;30;20172;-78
2021/11/19 09:55:56;;;;;;;1.58;1.17;;;19.90;55.70;;;;;;4799405;30;20216;-79
2021/11/19 09:58:56;;;;;;;3.22;1.20;;;19.90;55.50;;;;;;4770890;30;20184;-79
2021/11/19 10:01:43;;;;;;;2.25;1.25;;;19.90;55.70;;;;;;4800539;30;20182;-78
2021/11/19 10:04:20;;;;;;;1.63;1.30;;;19.90;55.70;;;;;;4784805;30;20158;-79
2021/11/19 10:07:10;;;;;;;2.10;1.20;;;19.90;55.40;;;;;;4755211;30;20175;-81
2021/11/19 10:09:49;;;;;;;1.77;1.02;;;19.80;55.60;;;;;;4799700;30;20183;-79
2021/11/19 10:12:22;;;;;;;2.08;1.25;;;19.90;55.80;;;;;;4770491;30;20254;-79
2021/11/19 10:14:56;;;;;;;2.60;1.58;;;19.90;55.70;;;;;;4770225;30;20186;-79
2021/11/19 10:17:57;;;;;;;2.03;1.50;;;19.90;55.40;;;;;;4770770;30;20210;-79
2021/11/19 10:20:37;;;;;;;2.90;1.40;;;19.90;55.60;;;;;;4800064;30;20186;-81
2021/11/19 10:23:20;;;;;;;3.28;1.58;;;19.80;55.50;;;;;;4785058;30;20639;-79
2021/11/19 10:26:01;;;;;;;1.85;1.17;;;19.90;54.50;;;;;;4785596;30;20163;-79
2021/11/19 10:28:46;;;;;;;1.50;1.10;;;19.90;54.90;;;;;;4755261;30;20179;-80
2021/11/19 10:31:16;;;;;;;2.55;1.30;;;19.90;55.40;;;;;;4769735;30;20196;-79
2021/11/19 10:34:22;;;;;;;1.50;1.10;;;19.90;55.10;;;;;;4783298;30;20163;-81
2021/11/19 10:37:28;;;;;;;2.40;1.27;;;19.90;55.30;;;;;;4799140;30;20214;-81
2021/11/19 10:40:17;;;;;;;2.08;1.27;;;19.90;55.50;;;;;;4782455;30;20167;-80
2021/11/19 10:43:08;;;;;;;1.95;1.45;;;19.90;55.20;;;;;;4769771;30;20254;-80
2021/11/19 10:46:06;;;;;;;2.05;1.13;;;19.90;55.40;;;;;;4784033;30;20160;-79
2021/11/19 10:48:58;;;;;;;1.58;1.20;;;19.90;55.40;;;;;;4799555;30;20163;-82
2021/11/19 10:51:43;;;;;;;1.40;1.30;;;19.90;55.40;;;;;;4798834;30;20194;-79
2021/11/19 10:54:36;;;;;;;1.67;1.20;;;19.90;55.50;;;;;;4783538;30;20184;-79
2021/11/19 10:57:24;;;;;;;1.45;1.13;;;19.90;55.60;;;;;;4768672;30;20345;-79
2021/11/19 11:00:25;;;;;;;1.83;1.15;;;19.90;55.50;;;;;;4783769;30;20627;-80
2021/11/19 11:02:54;;;;;;;2.42;1.23;;;19.90;55.50;;;;;;4778988;30;20176;-79
2021/11/19 11:05:32;;;;;;;1.42;1.20;;;19.90;55.50;;;;;;4795931;30;20222;-79
2021/11/19 11:08:05;;;;;;;1.42;1.30;;;19.90;55.50;;;;;;4781302;30;20179;-79
2021/11/19 11:10:34;;;;;;;2.20;1.48;;;19.90;55.40;;;;;;4797874;30;20204;-79
2021/11/19 11:13:00;;;;;;;2.63;1.30;;;19.90;55.50;;;;;;4782192;30;20170;-78
2021/11/19 11:15:37;;;;;;;2.08;1.10;;;19.90;55.30;;;;;;4773580;30;20641;-78
2021/11/19 11:18:21;;;;;;;2.50;1.17;;;19.90;55.40;;;;;;4759991;30;20209;-82
2021/11/19 11:20:59;;;;;;;1.50;1.10;;;19.90;55.10;;;;;;4775323;30;20176;-79
2021/11/19 11:23:37;;;;;;;1.83;1.40;;;19.90;55.10;;;;;;4793674;30;20544;-80
2021/11/19 11:26:19;;;;;;;1.45;1.10;;;19.90;55.00;;;;;;4767395;30;20179;-80
2021/11/19 11:28:53;;;;;;;3.03;1.20;;;19.90;55.10;;;;;;4776572;30;20693;-79
2021/11/19 11:31:50;;;;;;;2.28;1.20;;;19.90;55.10;;;;;;4767384;30;20163;-82
2021/11/19 11:34:24;;;;;;;2.60;1.25;;;19.90;55.00;;;;;;4765860;30;20184;-78
2021/11/19 11:37:17;;;;;;;3.13;1.17;;;20.00;55.10;;;;;;4766624;30;20202;-81
2021/11/19 11:40:17;;;;;;;1.55;1.15;;;20.00;55.30;;;;;;4782398;30;20231;-81
2021/11/19 11:42:47;;;;;;;1.73;1.30;;;19.90;54.90;;;;;;4793047;29;20167;-80
2021/11/19 11:45:44;;;;;;;1.55;1.15;;;20.00;55.90;;;;;;4777751;30;20170;-79
2021/11/19 11:48:39;;;;;;;1.70;1.08;;;19.90;55.60;;;;;;4794923;30;20194;-81
2021/11/19 11:51:11;;;;;;;2.10;1.33;;;19.90;55.00;;;;;;4767524;30;20206;-80
2021/11/19 11:54:04;;;;;;;2.47;1.35;;;19.90;55.30;;;;;;4769458;30;20175;-79
2021/11/19 11:56:37;;;;;;;1.98;1.20;;;19.90;55.30;;;;;;4778285;30;20223;-81
2021/11/19 11:59:29;;;;;;;1.35;1.10;;;20.00;55.20;;;;;;4760659;30;20180;-79
2021/11/19 12:02:00;;;;;;;1.77;1.10;;;19.90;55.10;;;;;;4775900;30;20186;-82
2021/11/19 12:04:47;;;;;;;1.30;1.17;;;20.00;55.20;;;;;;4760921;30;20319;-78
2021/11/19 12:07:37;;;;;;;1.35;1.25;;;20.00;55.00;;;;;;4777016;30;20176;-81
2021/11/19 12:10:31;;;;;;;1.48;1.13;;;20.00;55.00;;;;;;4777161;30;20247;-80
2021/11/19 12:13:05;;;;;;;1.20;1.10;;;19.90;55.10;;;;;;4762155;30;20156;-79
2021/11/19 12:15:47;;;;;;;1.70;1.00;;;20.00;55.10;;;;;;4776757;30;20217;-79
2021/11/19 12:18:38;;;;;;;1.50;1.10;;;20.00;55.30;;;;;;4777141;30;20183;-81
2021/11/19 12:21:18;;;;;;;3.30;1.17;;;19.90;55.20;;;;;;4778500;30;20372;-80
2021/11/19 12:24:06;;;;;;;1.77;0.93;;;20.00;55.10;;;;;;4780211;30;20164;-79
2021/11/19 12:26:48;;;;;;;2.47;1.23;;;20.00;55.20;;;;;;4781022;30;20315;-78
2021/11/19 12:29:23;;;;;;;1.50;1.10;;;19.90;55.20;;;;;;4776798;30;20255;-80
2021/11/19 12:32:07;;;;;;;1.02;0.98;;;19.90;55.20;;;;;;4789952;30;20171;-78
2021/11/19 12:34:37;;;;;;;2.00;1.10;;;20.00;55.30;;;;;;4797258;30;20201;-80
2021/11/19 12:37:09;;;;;;;1.20;1.00;;;20.00;55.30;;;;;;4752249;30;20208;-77
2021/11/19 12:39:37;;;;;;;1.35;0.95;;;19.90;55.20;;;;;;4784396;30;20183;-78
2021/11/19 12:42:17;;;;;;;1.70;1.02;;;20.00;55.20;;;;;;4768790;30;20203;-82
2021/11/19 12:45:01;;;;;;;1.30;1.08;;;19.90;55.30;;;;;;4783881;30;20274;-77
2021/11/19 12:48:00;;;;;;;1.55;1.10;;;19.90;55.40;;;;;;4799691;30;20179;-78
2021/11/19 12:50:34;;;;;;;1.63;1.17;;;20.00;55.20;;;;;;4786143;30;20176;-77
2021/11/19 12:53:31;;;;;;;1.13;1.00;;;20.00;55.10;;;;;;4770277;30;20643;-80
2021/11/19 12:56:22;;;;;;;2.80;1.33;;;20.10;55.30;;;;;;4770662;30;20211;-77
2021/11/19 12:59:13;;;;;;;1.10;1.00;;;20.00;55.20;;;;;;4786150;30;20243;-77
2021/11/19 13:02:18;;;;;;;1.38;1.10;;;20.00;55.00;;;;;;4785834;30;20160;-79
2021/11/19 13:05:10;;;;;;;1.38;1.05;;;20.00;55.20;;;;;;4787487;29;20230;-77
2021/11/19 13:07:58;;;;;;;1.95;1.30;;;20.00;55.20;;;;;;4785798;30;20194;-77
2021/11/19 13:10:43;;;;;;;2.05;0.98;;;20.00;55.30;;;;;;4785661;30;20666;-78
2021/11/19 13:13:30;;;;;;;1.00;0.95;;;20.00;55.10;;;;;;4785909;30;20274;-78
2021/11/19 13:16:26;;;;;;;1.50;1.20;;;20.00;55.20;;;;;;4782831;30;20171;-79
2021/11/19 13:18:54;;;;;;;2.35;1.05;;;20.00;55.20;;;;;;4785214;30;20187;-83
2021/11/19 13:21:42;;;;;;;1.52;0.90;;;20.00;55.10;;;;;;4771745;30;20183;-77
2021/11/19 13:24:39;;;;;;;1.65;0.98;;;20.00;55.20;;;;;;4803348;30;20156;-78
2021/11/19 13:27:37;;;;;;;1.60;1.00;;;20.10;55.20;;;;;;4787569;30;20603;-79
2021/11/19 13:30:07;;;;;;;1.13;1.00;;;20.00;55.20;;;;;;4768329;30;20172;-81
2021/11/19 13:32:44;;;;;;;1.45;1.08;;;20.00;55.20;;;;;;4764128;30;20184;-78
2021/11/19 13:35:15;;;;;;;1.70;0.98;;;20.00;54.90;;;;;;4779112;30;20202;-79
2021/11/19 13:38:10;;;;;;;0.80;0.80;;;20.00;55.00;;;;;;4786072;30;20207;-78
2021/11/19 13:41:17;;;;;;;1.45;1.00;;;20.00;55.20;;;;;;4801889;30;20196;-78
2021/11/19 13:43:47;;;;;;;1.05;0.90;;;20.00;55.20;;;;;;4800226;30;20233;-78
2021/11/19 13:46:45;;;;;;;1.40;1.05;;;20.00;55.20;;;;;;4786345;30;20243;-79
2021/11/19 13:49:29;;;;;;;1.10;1.00;;;20.00;55.20;;;;;;4784612;30;20182;-83
2021/11/19 13:52:04;;;;;;;1.50;1.05;;;20.00;55.00;;;;;;4770325;30;20636;-79
2021/11/19 13:54:37;;;;;;;1.48;1.00;;;20.00;55.30;;;;;;4784700;30;20155;-78
2021/11/19 13:57:28;;;;;;;1.00;0.88;;;20.00;55.00;;;;;;4784432;30;20195;-78
2021/11/19 14:00:12;;;;;;;1.90;0.82;;;20.00;55.20;;;;;;4785097;30;20168;-78
2021/11/19 14:02:49;;;;;;;1.70;1.00;;;20.00;55.20;;;;;;4785287;30;20170;-78
2021/11/19 14:05:24;;;;;;;1.35;1.05;;;20.00;55.30;;;;;;4784868;30;20291;-79
2021/11/19 14:08:16;;;;;;;1.13;1.00;;;20.00;55.10;;;;;;4781147;30;20263;-81
2021/11/19 14:10:53;;;;;;;1.60;1.08;;;20.00;55.20;;;;;;4768849;30;20237;-80
2021/11/19 14:13:29;;;;;;;1.52;1.00;;;20.00;54.70;;;;;;4785417;30;20163;-80
2021/11/19 14:16:04;;;;;;;1.33;1.00;;;20.00;54.90;;;;;;4784420;30;20189;-81
2021/11/19 14:18:33;;;;;;;1.63;0.90;;;20.00;54.70;;;;;;4784373;30;20232;-78
2021/11/19 14:23:50;;;;;;;1.17;0.90;;;20.00;54.80;;;;;;4773823;30;20183;-78
2021/11/19 14:26:25;;;;;;;1.52;1.02;;;20.10;54.70;;;;;;4770344;30;20203;-77
2021/11/19 14:28:53;;;;;;;1.67;1.10;;;20.00;54.70;;;;;;4785044;30;20322;-78
2021/11/19 14:31:21;;;;;;;1.75;1.00;;;20.00;54.60;;;;;;4771888;30;20164;-78
2021/11/19 14:34:09;;;;;;;2.95;1.10;;;20.00;55.00;;;;;;4765646;30;20176;-77
2021/11/19 14:36:50;;;;;;;1.90;0.90;;;20.00;55.10;;;;;;4755465;30;20192;-77
2021/11/19 14:39:30;;;;;;;1.88;0.90;;;20.00;55.00;;;;;;4752390;30;20199;-79
2021/11/19 14:42:16;;;;;;;1.60;1.00;;;20.10;55.20;;;;;;4750356;30;20214;-78
2021/11/19 14:44:55;;;;;;;1.55;0.90;;;20.10;55.00;;;;;;4751309;30;20274;-80
2021/11/19 14:47:38;;;;;;;1.80;1.00;;;20.10;55.00;;;;;;4767800;30;20172;-76
2021/11/19 14:51:15;;;;;;;1.33;1.10;;;20.00;54.90;;;;;;4772043;30;20167;-78
2021/11/19 14:53:03;;;;;;;1.13;0.80;;;20.10;54.60;;;;;;4769111;30;20188;-77
2021/11/19 14:56:07;;;;;;;1.35;1.10;;;20.10;54.50;;;;;;4743190;30;20271;-79
2021/11/19 14:58:35;;;;;;;1.10;0.85;;;20.10;54.60;;;;;;4781711;30;20172;-79
2021/11/19 15:01:15;;;;;;;1.77;1.08;;;20.10;54.60;;;;;;4763655;30;20184;-77
2021/11/19 15:03:52;;;;;;;1.20;0.90;;;20.10;54.60;;;;;;4777829;30;20164;-79
2021/11/19 15:06:26;;;;;;;1.38;1.10;;;20.00;54.60;;;;;;4778138;30;20220;-77
2021/11/19 15:09:27;;;;;;;1.33;1.10;;;20.10;54.80;;;;;;4759688;30;20188;-81
2021/11/19 15:12:12;;;;;;;1.45;0.98;;;20.20;54.80;;;;;;4746733;30;20254;-80
2021/11/19 15:14:49;;;;;;;1.25;1.00;;;20.10;54.90;;;;;;4757234;30;20189;-78
2021/11/19 15:17:34;;;;;;;2.75;1.25;;;20.10;54.90;;;;;;4760283;30;20200;-78
2021/11/19 15:20:23;;;;;;;1.38;0.95;;;20.10;55.00;;;;;;4780374;30;20518;-77
2021/11/19 15:23:02;;;;;;;3.75;1.10;;;20.10;55.00;;;;;;4779418;30;20203;-78
2021/11/19 15:25:38;;;;;;;3.28;1.10;;;20.20;55.00;;;;;;4752952;30;20243;-77
2021/11/19 15:28:24;;;;;;;1.38;1.10;;;20.10;55.10;;;;;;4782866;30;20164;-78
2021/11/19 15:31:06;;;;;;;1.27;1.05;;;20.20;55.20;;;;;;4781799;30;20228;-77
2021/11/19 15:33:58;;;;;;;1.00;0.88;;;20.10;55.20;;;;;;4768588;30;20169;-78
2021/11/19 15:36:50;;;;;;;1.73;1.05;;;20.10;55.20;;;;;;4769106;30;20250;-79
2021/11/19 15:39:17;;;;;;;1.90;1.00;;;20.10;55.20;;;;;;4781997;30;20253;-79
2021/11/19 15:41:47;;;;;;;1.48;0.98;;;20.10;55.20;;;;;;4783751;30;20191;-78
2021/11/19 15:44:25;;;;;;;1.15;1.00;;;20.10;55.90;;;;;;4769158;30;20180;-79
2021/11/19 15:46:51;;;;;;;0.93;0.85;;;20.10;55.20;;;;;;4768278;30;20192;-78
2021/11/19 15:49:20;;;;;;;1.13;0.90;;;20.10;55.20;;;;;;4766299;30;20169;-81
2021/11/19 15:51:50;;;;;;;1.70;1.10;;;20.10;55.00;;;;;;4777327;30;20198;-78
2021/11/19 15:54:28;;;;;;;1.17;1.05;;;20.10;54.90;;;;;;4743850;30;20579;-78
2021/11/19 15:57:33;;;;;;;1.27;0.95;;;20.10;55.00;;;;;;4748711;30;20219;-78
2021/11/19 16:00:13;;;;;;;3.13;1.08;;;20.20;55.10;;;;;;4751982;30;20605;-78
2021/11/19 16:03:11;;;;;;;3.22;1.13;;;20.20;55.00;;;;;;4751956;30;20256;-81
2021/11/19 16:05:52;;;;;;;4.50;1.20;;;20.20;55.00;;;;;;4751317;30;20711;-79
2021/11/19 16:08:41;;;;;;;1.52;0.93;;;20.20;54.60;;;;;;4767527;30;20222;-79
2021/11/19 16:11:31;;;;;;;1.63;1.05;;;20.20;55.00;;;;;;4771719;30;20164;-78
2021/11/19 16:14:05;;;;;;;1.05;0.90;;;20.20;55.60;;;;;;4773313;30;20654;-79
2021/11/19 16:16:41;;;;;;;2.95;1.15;;;20.30;55.10;;;;;;4772974;30;20266;-79
2021/11/19 16:19:07;;;;;;;2.60;1.00;;;20.30;55.30;;;;;;4771605;30;20168;-79
2021/11/19 16:21:36;;;;;;;2.90;1.10;;;20.30;55.30;;;;;;4782700;30;20195;-76
2021/11/19 16:24:02;;;;;;;1.83;0.90;;;20.30;55.10;;;;;;4799569;30;20171;-79
2021/11/19 16:26:32;;;;;;;1.77;1.08;;;20.30;55.10;;;;;;4772432;30;20235;-80
2021/11/19 16:28:58;;;;;;;4.35;1.48;;;20.20;55.00;;;;;;4774134;30;20213;-81
2021/11/19 16:31:26;;;;;;;3.70;1.10;;;20.30;55.10;;;;;;4775426;30;20158;-79
2021/11/19 16:33:52;;;;;;;3.30;1.00;;;20.30;55.20;;;;;;4772736;30;20612;-79
2021/11/19 16:36:19;;;;;;;2.83;1.10;;;20.30;55.10;;;;;;4773640;30;20203;-80
2021/11/19 16:38:45;;;;;;;4.20;1.08;;;20.30;55.10;;;;;;4774462;30;20190;-78
2021/11/19 16:41:11;;;;;;;2.92;1.15;;;20.30;55.20;;;;;;4771141;30;20182;-80
2021/11/19 16:43:48;;;;;;;1.35;0.80;;;20.30;55.20;;;;;;4775010;30;20187;-79
2021/11/19 16:46:58;;;;;;;5.55;0.85;;;20.30;55.10;;;;;;4793182;30;20172;-80
2021/11/19 16:49:26;;;;;;;5.97;1.38;;;20.30;55.20;;;;;;4734594;30;20232;-80
2021/11/19 16:51:57;;;;;;;14.88;1.70;;;20.30;55.40;;;;;;4713774;30;20195;-79
2021/11/19 16:54:28;;;;;;;11.02;1.90;;;20.30;55.60;;;;;;4728245;30;20663;-80
2021/11/19 16:56:56;;;;;;;6.35;1.10;;;20.40;55.60;;;;;;4726854;30;20253;-79
2021/11/19 16:59:22;;;;;;;8.15;1.35;;;20.40;56.00;;;;;;4726478;30;20200;-78
2021/11/19 17:01:49;;;;;;;15.93;2.25;;;20.40;56.00;;;;;;4712149;30;20209;-78
2021/11/19 17:04:15;;;;;;;16.55;1.60;;;20.40;56.10;;;;;;4712070;30;20170;-82
2021/11/19 17:06:41;;;;;;;14.02;2.25;;;20.40;56.50;;;;;;4695897;30;20226;-81
2021/11/19 17:09:08;;;;;;;12.90;1.77;;;20.40;55.90;;;;;;4692307;30;20774;-83
2021/11/19 17:11:35;;;;;;;20.02;2.20;;;20.40;55.80;;;;;;4695088;30;20206;-80
2021/11/19 17:14:04;;;;;;;22.10;1.90;;;20.40;55.90;;;;;;4699154;30;20198;-80
2021/11/19 17:16:30;;;;;;;12.15;1.70;;;20.40;56.00;;;;;;4698151;30;20262;-80
2021/11/19 17:18:57;;;;;;;16.15;2.30;;;20.40;56.00;;;;;;4644870;30;20199;-81
2021/11/19 17:21:28;;;;;;;19.27;1.63;;;20.40;56.10;;;;;;4646037;30;20268;-82
2021/11/19 17:23:54;;;;;;;6.95;1.83;;;20.40;56.20;;;;;;4642972;30;20285;-80
2021/11/19 17:26:20;;;;;;;19.13;2.10;;;20.40;56.30;;;;;;4643699;30;20192;-82
2021/11/19 17:28:48;;;;;;;10.95;1.52;;;20.40;56.40;;;;;;4664819;30;20194;-80
2021/11/19 17:31:16;;;;;;;13.20;1.50;;;20.40;56.10;;;;;;4693113;30;20187;-81
2021/11/19 17:33:41;;;;;;;12.52;1.35;;;20.40;56.60;;;;;;4706423;30;20687;-79